X  Close Metar Aviation Weather Data     ENGM Oslo Gardermoen Airport
Temperature
16°C Temperature
13°C Dewpoint
83% Humidity



Wind
1 M/S
3 MPH
5 KM/H
3 KTS



20°
NNE
Current Conditions

Clear Clear
Pressure 1016.92 (hPa) - 30.03 (inHg)
Visibility 6.2 (mile) - 10 (km)
Airport
Airport-code ENGM

Location: Oslo Gardermoen Airport
Distance: 6 (km)

Metar:
ENGM 260520Z 02003KT CAVOK 16/13 Q1017 NOSIG

Time: 26-07-2021 07:20 CEST